sensor_id;sensor_type;location;lat;lon;timestamp;P1;durP1;ratioP1;P2;durP2;ratioP2
59006;SDS011;44792;52.760;6.726;2023-07-13T00:00:27;9.30;;;1.75;;
59006;SDS011;44792;52.760;6.726;2023-07-13T00:02:53;4.05;;;1.25;;
59006;SDS011;44792;52.760;6.726;2023-07-13T00:05:22;5.13;;;1.80;;
59006;SDS011;44792;52.760;6.726;2023-07-13T00:07:49;7.57;;;2.03;;
59006;SDS011;44792;52.760;6.726;2023-07-13T00:10:15;9.18;;;1.83;;
59006;SDS011;44792;52.760;6.726;2023-07-13T00:12:42;6.75;;;1.88;;
59006;SDS011;44792;52.760;6.726;2023-07-13T00:15:12;7.50;;;1.88;;
59006;SDS011;44792;52.760;6.726;2023-07-13T00:17:41;9.75;;;2.05;;
59006;SDS011;44792;52.760;6.726;2023-07-13T00:20:10;7.40;;;2.13;;
59006;SDS011;44792;52.760;6.726;2023-07-13T00:22:36;10.73;;;2.53;;
59006;SDS011;44792;52.760;6.726;2023-07-13T00:25:02;3.78;;;1.58;;
59006;SDS011;44792;52.760;6.726;2023-07-13T00:27:28;9.10;;;1.80;;
59006;SDS011;44792;52.760;6.726;2023-07-13T00:29:57;8.98;;;2.55;;
59006;SDS011;44792;52.760;6.726;2023-07-13T00:32:23;7.43;;;2.00;;
59006;SDS011;44792;52.760;6.726;2023-07-13T00:34:50;8.85;;;2.08;;
59006;SDS011;44792;52.760;6.726;2023-07-13T00:37:17;8.32;;;2.45;;
59006;SDS011;44792;52.760;6.726;2023-07-13T00:39:42;8.20;;;1.88;;
59006;SDS011;44792;52.760;6.726;2023-07-13T00:42:08;8.02;;;1.90;;
59006;SDS011;44792;52.760;6.726;2023-07-13T00:44:34;8.52;;;2.17;;
59006;SDS011;44792;52.760;6.726;2023-07-13T00:47:00;8.55;;;2.00;;
59006;SDS011;44792;52.760;6.726;2023-07-13T00:49:27;4.65;;;1.48;;
59006;SDS011;44792;52.760;6.726;2023-07-13T00:51:56;9.30;;;1.67;;
59006;SDS011;44792;52.760;6.726;2023-07-13T00:54:24;9.50;;;1.85;;
59006;SDS011;44792;52.760;6.726;2023-07-13T00:56:56;9.20;;;2.13;;
59006;SDS011;44792;52.760;6.726;2023-07-13T00:59:25;10.60;;;2.00;;
59006;SDS011;44792;52.760;6.726;2023-07-13T01:01:51;6.13;;;1.90;;
59006;SDS011;44792;52.760;6.726;2023-07-13T01:04:18;7.90;;;2.10;;
59006;SDS011;44792;52.760;6.726;2023-07-13T01:06:44;7.68;;;2.20;;
59006;SDS011;44792;52.760;6.726;2023-07-13T01:09:12;9.18;;;2.40;;
59006;SDS011;44792;52.760;6.726;2023-07-13T01:11:39;4.72;;;1.90;;
59006;SDS011;44792;52.760;6.726;2023-07-13T01:14:06;10.73;;;3.28;;
59006;SDS011;44792;52.760;6.726;2023-07-13T01:16:34;6.03;;;1.88;;
59006;SDS011;44792;52.760;6.726;2023-07-13T01:19:01;9.48;;;2.20;;
59006;SDS011;44792;52.760;6.726;2023-07-13T01:21:33;5.65;;;2.03;;
59006;SDS011;44792;52.760;6.726;2023-07-13T01:23:59;6.72;;;1.77;;
59006;SDS011;44792;52.760;6.726;2023-07-13T01:26:27;8.20;;;2.15;;
59006;SDS011;44792;52.760;6.726;2023-07-13T01:28:53;7.28;;;2.15;;
59006;SDS011;44792;52.760;6.726;2023-07-13T01:31:21;9.68;;;2.13;;
59006;SDS011;44792;52.760;6.726;2023-07-13T01:33:47;9.77;;;2.15;;
59006;SDS011;44792;52.760;6.726;2023-07-13T01:36:13;9.45;;;2.58;;
59006;SDS011;44792;52.760;6.726;2023-07-13T01:38:38;6.82;;;2.10;;
59006;SDS011;44792;52.760;6.726;2023-07-13T01:41:04;9.77;;;2.10;;
59006;SDS011;44792;52.760;6.726;2023-07-13T01:43:30;7.70;;;1.98;;
59006;SDS011;44792;52.760;6.726;2023-07-13T01:45:56;11.27;;;2.15;;
59006;SDS011;44792;52.760;6.726;2023-07-13T01:48:21;15.45;;;2.50;;
59006;SDS011;44792;52.760;6.726;2023-07-13T01:50:47;7.35;;;1.58;;
59006;SDS011;44792;52.760;6.726;2023-07-13T01:53:13;9.43;;;1.90;;
59006;SDS011;44792;52.760;6.726;2023-07-13T01:55:39;12.07;;;2.03;;
59006;SDS011;44792;52.760;6.726;2023-07-13T01:58:05;9.52;;;2.85;;
59006;SDS011;44792;52.760;6.726;2023-07-13T02:00:32;8.95;;;2.30;;
59006;SDS011;44792;52.760;6.726;2023-07-13T02:02:58;7.68;;;2.20;;
59006;SDS011;44792;52.760;6.726;2023-07-13T02:05:23;10.68;;;2.00;;
59006;SDS011;44792;52.760;6.726;2023-07-13T02:07:50;9.50;;;2.17;;
59006;SDS011;44792;52.760;6.726;2023-07-13T02:10:15;8.77;;;2.40;;
59006;SDS011;44792;52.760;6.726;2023-07-13T02:12:41;6.93;;;2.30;;
59006;SDS011;44792;52.760;6.726;2023-07-13T02:15:08;6.63;;;2.10;;
59006;SDS011;44792;52.760;6.726;2023-07-13T02:17:35;10.90;;;2.10;;
59006;SDS011;44792;52.760;6.726;2023-07-13T02:20:02;7.93;;;2.03;;
59006;SDS011;44792;52.760;6.726;2023-07-13T02:22:29;6.72;;;2.08;;
59006;SDS011;44792;52.760;6.726;2023-07-13T02:24:55;11.73;;;2.63;;
59006;SDS011;44792;52.760;6.726;2023-07-13T02:27:21;9.75;;;2.42;;
59006;SDS011;44792;52.760;6.726;2023-07-13T02:29:47;10.48;;;1.95;;
59006;SDS011;44792;52.760;6.726;2023-07-13T02:32:12;8.68;;;2.28;;
59006;SDS011;44792;52.760;6.726;2023-07-13T02:34:41;11.45;;;2.58;;
59006;SDS011;44792;52.760;6.726;2023-07-13T02:37:07;7.88;;;2.15;;
59006;SDS011;44792;52.760;6.726;2023-07-13T02:39:32;14.55;;;2.55;;
59006;SDS011;44792;52.760;6.726;2023-07-13T02:41:59;12.32;;;2.72;;
59006;SDS011;44792;52.760;6.726;2023-07-13T02:44:25;10.55;;;1.80;;
59006;SDS011;44792;52.760;6.726;2023-07-13T02:46:51;10.68;;;2.33;;
59006;SDS011;44792;52.760;6.726;2023-07-13T02:49:17;11.95;;;2.47;;
59006;SDS011;44792;52.760;6.726;2023-07-13T02:51:42;11.50;;;2.78;;
59006;SDS011;44792;52.760;6.726;2023-07-13T02:54:08;14.63;;;2.90;;
59006;SDS011;44792;52.760;6.726;2023-07-13T02:56:35;10.82;;;2.95;;
59006;SDS011;44792;52.760;6.726;2023-07-13T02:59:00;10.80;;;2.67;;
59006;SDS011;44792;52.760;6.726;2023-07-13T03:01:27;7.38;;;2.10;;
59006;SDS011;44792;52.760;6.726;2023-07-13T03:03:53;14.05;;;2.20;;
59006;SDS011;44792;52.760;6.726;2023-07-13T03:06:19;8.50;;;2.72;;
59006;SDS011;44792;52.760;6.726;2023-07-13T03:08:46;9.35;;;2.20;;
59006;SDS011;44792;52.760;6.726;2023-07-13T03:11:15;16.40;;;3.25;;
59006;SDS011;44792;52.760;6.726;2023-07-13T03:13:44;11.80;;;2.33;;
59006;SDS011;44792;52.760;6.726;2023-07-13T03:16:10;11.80;;;3.08;;
59006;SDS011;44792;52.760;6.726;2023-07-13T03:18:37;10.93;;;2.72;;
59006;SDS011;44792;52.760;6.726;2023-07-13T03:21:03;9.52;;;2.28;;
59006;SDS011;44792;52.760;6.726;2023-07-13T03:23:30;12.02;;;2.53;;
59006;SDS011;44792;52.760;6.726;2023-07-13T03:26:29;10.88;;;2.40;;
59006;SDS011;44792;52.760;6.726;2023-07-13T03:28:48;7.43;;;2.10;;
59006;SDS011;44792;52.760;6.726;2023-07-13T03:31:19;11.18;;;2.85;;
59006;SDS011;44792;52.760;6.726;2023-07-13T03:33:50;7.72;;;2.60;;
59006;SDS011;44792;52.760;6.726;2023-07-13T03:36:17;11.45;;;2.58;;
59006;SDS011;44792;52.760;6.726;2023-07-13T03:38:49;8.75;;;2.70;;
59006;SDS011;44792;52.760;6.726;2023-07-13T03:41:17;12.82;;;2.92;;
59006;SDS011;44792;52.760;6.726;2023-07-13T03:43:43;6.15;;;2.42;;
59006;SDS011;44792;52.760;6.726;2023-07-13T03:46:09;13.70;;;2.63;;
59006;SDS011;44792;52.760;6.726;2023-07-13T03:48:35;11.57;;;2.67;;
59006;SDS011;44792;52.760;6.726;2023-07-13T03:51:00;7.63;;;2.35;;
59006;SDS011;44792;52.760;6.726;2023-07-13T03:53:26;11.38;;;2.50;;
59006;SDS011;44792;52.760;6.726;2023-07-13T03:55:52;13.93;;;2.40;;
59006;SDS011;44792;52.760;6.726;2023-07-13T04:00:52;11.05;;;2.63;;
59006;SDS011;44792;52.760;6.726;2023-07-13T04:03:18;8.68;;;2.60;;
59006;SDS011;44792;52.760;6.726;2023-07-13T04:05:43;15.90;;;3.53;;
59006;SDS011;44792;52.760;6.726;2023-07-13T04:08:09;11.95;;;2.80;;
59006;SDS011;44792;52.760;6.726;2023-07-13T04:10:35;10.23;;;2.40;;
59006;SDS011;44792;52.760;6.726;2023-07-13T04:13:01;14.20;;;2.47;;
59006;SDS011;44792;52.760;6.726;2023-07-13T04:15:29;8.77;;;2.33;;
59006;SDS011;44792;52.760;6.726;2023-07-13T04:17:55;7.47;;;2.20;;
59006;SDS011;44792;52.760;6.726;2023-07-13T04:20:21;11.05;;;3.22;;
59006;SDS011;44792;52.760;6.726;2023-07-13T04:22:47;11.77;;;2.95;;
59006;SDS011;44792;52.760;6.726;2023-07-13T04:25:12;9.90;;;2.60;;
59006;SDS011;44792;52.760;6.726;2023-07-13T04:27:38;8.75;;;2.67;;
59006;SDS011;44792;52.760;6.726;2023-07-13T04:30:05;12.98;;;3.30;;
59006;SDS011;44792;52.760;6.726;2023-07-13T04:32:31;8.38;;;2.55;;
59006;SDS011;44792;52.760;6.726;2023-07-13T04:34:57;9.15;;;2.38;;
59006;SDS011;44792;52.760;6.726;2023-07-13T04:37:24;7.10;;;2.70;;
59006;SDS011;44792;52.760;6.726;2023-07-13T04:39:51;10.20;;;3.05;;
59006;SDS011;44792;52.760;6.726;2023-07-13T04:42:17;10.30;;;2.78;;
59006;SDS011;44792;52.760;6.726;2023-07-13T04:44:50;8.18;;;2.13;;
59006;SDS011;44792;52.760;6.726;2023-07-13T04:47:17;8.10;;;2.50;;
59006;SDS011;44792;52.760;6.726;2023-07-13T04:49:44;11.88;;;2.70;;
59006;SDS011;44792;52.760;6.726;2023-07-13T04:52:10;8.75;;;2.33;;
59006;SDS011;44792;52.760;6.726;2023-07-13T04:54:36;9.75;;;2.85;;
59006;SDS011;44792;52.760;6.726;2023-07-13T04:57:03;9.63;;;3.00;;
59006;SDS011;44792;52.760;6.726;2023-07-13T04:59:31;7.35;;;2.92;;
59006;SDS011;44792;52.760;6.726;2023-07-13T05:01:58;9.20;;;3.08;;
59006;SDS011;44792;52.760;6.726;2023-07-13T05:04:24;5.22;;;2.47;;
59006;SDS011;44792;52.760;6.726;2023-07-13T05:06:49;12.27;;;3.15;;
59006;SDS011;44792;52.760;6.726;2023-07-13T05:09:15;8.57;;;3.20;;
59006;SDS011;44792;52.760;6.726;2023-07-13T05:11:41;14.38;;;2.97;;
59006;SDS011;44792;52.760;6.726;2023-07-13T05:14:08;9.90;;;2.70;;
59006;SDS011;44792;52.760;6.726;2023-07-13T05:16:34;10.73;;;3.30;;
59006;SDS011;44792;52.760;6.726;2023-07-13T05:19:01;17.67;;;3.42;;
59006;SDS011;44792;52.760;6.726;2023-07-13T05:21:28;8.23;;;2.78;;
59006;SDS011;44792;52.760;6.726;2023-07-13T05:23:53;7.38;;;2.85;;
59006;SDS011;44792;52.760;6.726;2023-07-13T05:26:19;11.45;;;2.95;;
59006;SDS011;44792;52.760;6.726;2023-07-13T05:28:45;13.52;;;2.88;;
59006;SDS011;44792;52.760;6.726;2023-07-13T05:31:11;7.97;;;3.10;;
59006;SDS011;44792;52.760;6.726;2023-07-13T05:33:37;8.15;;;3.08;;
59006;SDS011;44792;52.760;6.726;2023-07-13T05:36:03;11.02;;;3.13;;
59006;SDS011;44792;52.760;6.726;2023-07-13T05:38:29;10.80;;;2.67;;
59006;SDS011;44792;52.760;6.726;2023-07-13T05:40:55;12.45;;;3.05;;
59006;SDS011;44792;52.760;6.726;2023-07-13T05:43:22;9.98;;;3.53;;
59006;SDS011;44792;52.760;6.726;2023-07-13T05:45:49;13.10;;;3.67;;
59006;SDS011;44792;52.760;6.726;2023-07-13T05:48:17;10.13;;;3.00;;
59006;SDS011;44792;52.760;6.726;2023-07-13T05:50:43;13.18;;;2.63;;
59006;SDS011;44792;52.760;6.726;2023-07-13T05:53:09;7.25;;;2.55;;
59006;SDS011;44792;52.760;6.726;2023-07-13T05:55:35;14.68;;;3.80;;
59006;SDS011;44792;52.760;6.726;2023-07-13T05:58:01;9.93;;;2.75;;
59006;SDS011;44792;52.760;6.726;2023-07-13T06:00:26;15.13;;;2.90;;
59006;SDS011;44792;52.760;6.726;2023-07-13T06:02:52;16.67;;;2.90;;
59006;SDS011;44792;52.760;6.726;2023-07-13T06:05:18;14.73;;;3.20;;
59006;SDS011;44792;52.760;6.726;2023-07-13T06:07:44;9.85;;;2.55;;
59006;SDS011;44792;52.760;6.726;2023-07-13T06:10:10;10.13;;;3.10;;
59006;SDS011;44792;52.760;6.726;2023-07-13T06:12:36;11.40;;;2.70;;
59006;SDS011;44792;52.760;6.726;2023-07-13T06:15:01;6.97;;;2.70;;
59006;SDS011;44792;52.760;6.726;2023-07-13T06:17:28;14.98;;;3.30;;
59006;SDS011;44792;52.760;6.726;2023-07-13T06:19:53;8.32;;;2.83;;
59006;SDS011;44792;52.760;6.726;2023-07-13T06:22:19;11.20;;;2.83;;
59006;SDS011;44792;52.760;6.726;2023-07-13T06:24:45;8.57;;;2.72;;
59006;SDS011;44792;52.760;6.726;2023-07-13T06:27:11;8.18;;;2.70;;
59006;SDS011;44792;52.760;6.726;2023-07-13T06:29:37;11.20;;;3.08;;
59006;SDS011;44792;52.760;6.726;2023-07-13T06:32:04;6.85;;;3.03;;
59006;SDS011;44792;52.760;6.726;2023-07-13T06:34:31;10.02;;;2.65;;
59006;SDS011;44792;52.760;6.726;2023-07-13T06:36:56;11.25;;;2.90;;
59006;SDS011;44792;52.760;6.726;2023-07-13T06:39:22;8.88;;;2.33;;
59006;SDS011;44792;52.760;6.726;2023-07-13T06:41:48;9.80;;;3.38;;
59006;SDS011;44792;52.760;6.726;2023-07-13T06:44:13;7.00;;;2.38;;
59006;SDS011;44792;52.760;6.726;2023-07-13T06:46:39;10.45;;;2.30;;
59006;SDS011;44792;52.760;6.726;2023-07-13T06:49:05;11.02;;;2.75;;
59006;SDS011;44792;52.760;6.726;2023-07-13T06:51:30;12.20;;;2.67;;
59006;SDS011;44792;52.760;6.726;2023-07-13T06:53:56;11.25;;;2.60;;
59006;SDS011;44792;52.760;6.726;2023-07-13T06:56:22;6.90;;;2.15;;
59006;SDS011;44792;52.760;6.726;2023-07-13T06:58:47;12.27;;;2.60;;
59006;SDS011;44792;52.760;6.726;2023-07-13T07:01:13;10.90;;;2.80;;
59006;SDS011;44792;52.760;6.726;2023-07-13T07:03:39;8.68;;;2.30;;
59006;SDS011;44792;52.760;6.726;2023-07-13T07:06:23;8.27;;;3.05;;
59006;SDS011;44792;52.760;6.726;2023-07-13T07:08:49;10.48;;;2.88;;
59006;SDS011;44792;52.760;6.726;2023-07-13T07:11:23;11.48;;;3.15;;
59006;SDS011;44792;52.760;6.726;2023-07-13T07:13:50;7.75;;;2.80;;
59006;SDS011;44792;52.760;6.726;2023-07-13T07:16:18;12.40;;;3.03;;
59006;SDS011;44792;52.760;6.726;2023-07-13T07:18:44;12.55;;;2.85;;
59006;SDS011;44792;52.760;6.726;2023-07-13T07:21:10;8.93;;;2.55;;
59006;SDS011;44792;52.760;6.726;2023-07-13T07:23:37;10.07;;;2.88;;
59006;SDS011;44792;52.760;6.726;2023-07-13T07:26:02;9.05;;;2.83;;
59006;SDS011;44792;52.760;6.726;2023-07-13T07:28:28;9.98;;;3.08;;
59006;SDS011;44792;52.760;6.726;2023-07-13T07:30:55;8.38;;;2.63;;
59006;SDS011;44792;52.760;6.726;2023-07-13T07:33:22;7.18;;;2.75;;
59006;SDS011;44792;52.760;6.726;2023-07-13T07:35:48;10.98;;;3.05;;
59006;SDS011;44792;52.760;6.726;2023-07-13T07:38:14;13.20;;;3.83;;
59006;SDS011;44792;52.760;6.726;2023-07-13T07:40:41;10.45;;;2.72;;
59006;SDS011;44792;52.760;6.726;2023-07-13T07:43:07;9.15;;;2.80;;
59006;SDS011;44792;52.760;6.726;2023-07-13T07:45:34;11.38;;;3.05;;
59006;SDS011;44792;52.760;6.726;2023-07-13T07:48:02;12.40;;;3.13;;
59006;SDS011;44792;52.760;6.726;2023-07-13T07:50:28;14.68;;;2.95;;
59006;SDS011;44792;52.760;6.726;2023-07-13T07:52:54;10.57;;;2.92;;
59006;SDS011;44792;52.760;6.726;2023-07-13T07:55:24;13.73;;;3.67;;
59006;SDS011;44792;52.760;6.726;2023-07-13T07:57:53;10.07;;;3.10;;
59006;SDS011;44792;52.760;6.726;2023-07-13T08:00:20;10.85;;;3.10;;
59006;SDS011;44792;52.760;6.726;2023-07-13T08:02:45;16.95;;;4.13;;
59006;SDS011;44792;52.760;6.726;2023-07-13T08:05:11;12.35;;;3.70;;
59006;SDS011;44792;52.760;6.726;2023-07-13T08:07:38;15.63;;;3.33;;
59006;SDS011;44792;52.760;6.726;2023-07-13T08:10:04;10.68;;;3.47;;
59006;SDS011;44792;52.760;6.726;2023-07-13T08:12:34;6.93;;;3.42;;
59006;SDS011;44792;52.760;6.726;2023-07-13T08:15:01;10.20;;;3.40;;
59006;SDS011;44792;52.760;6.726;2023-07-13T08:17:27;10.73;;;3.65;;
59006;SDS011;44792;52.760;6.726;2023-07-13T08:19:53;10.95;;;3.40;;
59006;SDS011;44792;52.760;6.726;2023-07-13T08:22:18;13.75;;;4.10;;
59006;SDS011;44792;52.760;6.726;2023-07-13T08:24:44;13.88;;;3.60;;
59006;SDS011;44792;52.760;6.726;2023-07-13T08:27:10;11.68;;;3.90;;
59006;SDS011;44792;52.760;6.726;2023-07-13T08:29:36;15.35;;;3.53;;
59006;SDS011;44792;52.760;6.726;2023-07-13T08:32:04;13.20;;;3.92;;
59006;SDS011;44792;52.760;6.726;2023-07-13T08:34:31;14.75;;;3.72;;
59006;SDS011;44792;52.760;6.726;2023-07-13T08:36:56;11.70;;;4.13;;
59006;SDS011;44792;52.760;6.726;2023-07-13T08:39:22;9.55;;;3.25;;
59006;SDS011;44792;52.760;6.726;2023-07-13T08:41:49;13.10;;;3.92;;
59006;SDS011;44792;52.760;6.726;2023-07-13T08:44:24;12.82;;;3.70;;
59006;SDS011;44792;52.760;6.726;2023-07-13T08:47:00;13.07;;;3.90;;
59006;SDS011;44792;52.760;6.726;2023-07-13T08:49:26;16.40;;;4.10;;
59006;SDS011;44792;52.760;6.726;2023-07-13T08:51:54;13.55;;;3.88;;
59006;SDS011;44792;52.760;6.726;2023-07-13T08:54:41;14.57;;;5.20;;
59006;SDS011;44792;52.760;6.726;2023-07-13T08:57:13;20.95;;;5.60;;
59006;SDS011;44792;52.760;6.726;2023-07-13T08:59:40;17.52;;;5.18;;
59006;SDS011;44792;52.760;6.726;2023-07-13T09:04:46;14.27;;;5.20;;
59006;SDS011;44792;52.760;6.726;2023-07-13T09:07:26;14.02;;;5.22;;
59006;SDS011;44792;52.760;6.726;2023-07-13T09:18:08;17.23;;;4.28;;
59006;SDS011;44792;52.760;6.726;2023-07-13T09:20:43;12.40;;;6.05;;
59006;SDS011;44792;52.760;6.726;2023-07-13T09:23:19;13.77;;;6.95;;
59006;SDS011;44792;52.760;6.726;2023-07-13T09:25:48;15.30;;;6.82;;
59006;SDS011;44792;52.760;6.726;2023-07-13T09:28:22;7.95;;;3.90;;
59006;SDS011;44792;52.760;6.726;2023-07-13T09:33:35;3.53;;;1.45;;
59006;SDS011;44792;52.760;6.726;2023-07-13T09:36:00;4.25;;;1.60;;
59006;SDS011;44792;52.760;6.726;2023-07-13T09:38:35;2.42;;;1.55;;
59006;SDS011;44792;52.760;6.726;2023-07-13T09:41:21;3.25;;;1.13;;
59006;SDS011;44792;52.760;6.726;2023-07-13T09:44:09;1.65;;;0.93;;
59006;SDS011;44792;52.760;6.726;2023-07-13T09:46:43;2.78;;;1.10;;
59006;SDS011;44792;52.760;6.726;2023-07-13T09:49:11;3.95;;;1.00;;
59006;SDS011;44792;52.760;6.726;2023-07-13T09:51:37;2.58;;;1.10;;
59006;SDS011;44792;52.760;6.726;2023-07-13T09:54:14;3.33;;;1.30;;
59006;SDS011;44792;52.760;6.726;2023-07-13T09:56:44;1.58;;;0.88;;
59006;SDS011;44792;52.760;6.726;2023-07-13T09:59:23;2.35;;;0.98;;
59006;SDS011;44792;52.760;6.726;2023-07-13T10:01:53;3.28;;;1.38;;
59006;SDS011;44792;52.760;6.726;2023-07-13T10:04:21;2.08;;;0.90;;
59006;SDS011;44792;52.760;6.726;2023-07-13T10:06:51;1.50;;;0.95;;
59006;SDS011;44792;52.760;6.726;2023-07-13T10:09:33;1.33;;;1.02;;
59006;SDS011;44792;52.760;6.726;2023-07-13T10:11:58;4.10;;;1.45;;
59006;SDS011;44792;52.760;6.726;2023-07-13T10:14:24;2.38;;;1.10;;
59006;SDS011;44792;52.760;6.726;2023-07-13T10:16:56;2.30;;;1.38;;
59006;SDS011;44792;52.760;6.726;2023-07-13T10:19:27;3.00;;;1.10;;
59006;SDS011;44792;52.760;6.726;2023-07-13T10:22:02;3.28;;;1.40;;
59006;SDS011;44792;52.760;6.726;2023-07-13T10:24:38;4.18;;;1.45;;
59006;SDS011;44792;52.760;6.726;2023-07-13T10:27:24;2.28;;;1.42;;
59006;SDS011;44792;52.760;6.726;2023-07-13T10:30:15;3.45;;;1.67;;
59006;SDS011;44792;52.760;6.726;2023-07-13T10:32:57;2.58;;;2.08;;
59006;SDS011;44792;52.760;6.726;2023-07-13T10:35:24;3.58;;;2.10;;
59006;SDS011;44792;52.760;6.726;2023-07-13T10:37:57;5.18;;;2.13;;
59006;SDS011;44792;52.760;6.726;2023-07-13T10:40:28;2.97;;;2.67;;
59006;SDS011;44792;52.760;6.726;2023-07-13T10:43:01;5.32;;;3.08;;
59006;SDS011;44792;52.760;6.726;2023-07-13T10:45:35;5.22;;;3.08;;
59006;SDS011;44792;52.760;6.726;2023-07-13T10:48:02;6.63;;;3.30;;
59006;SDS011;44792;52.760;6.726;2023-07-13T10:50:30;5.57;;;3.33;;
59006;SDS011;44792;52.760;6.726;2023-07-13T10:53:02;6.18;;;3.70;;
59006;SDS011;44792;52.760;6.726;2023-07-13T10:58:23;7.82;;;4.03;;
59006;SDS011;44792;52.760;6.726;2023-07-13T11:18:47;7.63;;;4.70;;
59006;SDS011;44792;52.760;6.726;2023-07-13T11:21:18;6.95;;;3.95;;
59006;SDS011;44792;52.760;6.726;2023-07-13T11:23:51;6.10;;;3.20;;
59006;SDS011;44792;52.760;6.726;2023-07-13T11:31:57;3.28;;;2.22;;
59006;SDS011;44792;52.760;6.726;2023-07-13T11:34:31;2.90;;;2.08;;
59006;SDS011;44792;52.760;6.726;2023-07-13T11:37:01;3.30;;;1.90;;
59006;SDS011;44792;52.760;6.726;2023-07-13T11:39:29;1.42;;;1.33;;
59006;SDS011;44792;52.760;6.726;2023-07-13T11:42:04;4.47;;;1.42;;
59006;SDS011;44792;52.760;6.726;2023-07-13T11:44:34;2.60;;;1.55;;
59006;SDS011;44792;52.760;6.726;2023-07-13T11:47:11;4.13;;;2.13;;
59006;SDS011;44792;52.760;6.726;2023-07-13T11:49:45;3.60;;;1.77;;
59006;SDS011;44792;52.760;6.726;2023-07-13T11:52:15;4.00;;;1.67;;
59006;SDS011;44792;52.760;6.726;2023-07-13T11:54:56;8.40;;;2.20;;
59006;SDS011;44792;52.760;6.726;2023-07-13T11:57:26;3.03;;;2.43;;
59006;SDS011;44792;52.760;6.726;2023-07-13T11:59:53;5.97;;;2.75;;
59006;SDS011;44792;52.760;6.726;2023-07-13T12:02:30;4.53;;;2.55;;
59006;SDS011;44792;52.760;6.726;2023-07-13T12:05:09;3.88;;;2.50;;
59006;SDS011;44792;52.760;6.726;2023-07-13T12:07:37;7.07;;;2.80;;
59006;SDS011;44792;52.760;6.726;2023-07-13T12:13:00;4.88;;;2.83;;
59006;SDS011;44792;52.760;6.726;2023-07-13T12:15:40;4.47;;;3.08;;
59006;SDS011;44792;52.760;6.726;2023-07-13T12:18:41;5.82;;;3.40;;
59006;SDS011;44792;52.760;6.726;2023-07-13T12:21:00;6.43;;;3.45;;
59006;SDS011;44792;52.760;6.726;2023-07-13T12:25:55;9.88;;;4.35;;
59006;SDS011;44792;52.760;6.726;2023-07-13T12:31:05;5.82;;;3.60;;
59006;SDS011;44792;52.760;6.726;2023-07-13T12:33:44;9.70;;;3.03;;
59006;SDS011;44792;52.760;6.726;2023-07-13T12:36:10;10.65;;;3.22;;
59006;SDS011;44792;52.760;6.726;2023-07-13T12:38:37;6.22;;;2.83;;
59006;SDS011;44792;52.760;6.726;2023-07-13T12:41:03;7.60;;;2.95;;
59006;SDS011;44792;52.760;6.726;2023-07-13T12:43:29;6.15;;;2.63;;
59006;SDS011;44792;52.760;6.726;2023-07-13T12:46:03;5.57;;;2.70;;
59006;SDS011;44792;52.760;6.726;2023-07-13T12:48:41;5.85;;;2.42;;
59006;SDS011;44792;52.760;6.726;2023-07-13T12:51:11;6.13;;;2.03;;
59006;SDS011;44792;52.760;6.726;2023-07-13T12:53:42;4.75;;;2.38;;
59006;SDS011;44792;52.760;6.726;2023-07-13T12:56:23;5.88;;;2.30;;
59006;SDS011;44792;52.760;6.726;2023-07-13T12:58:56;5.35;;;2.33;;
59006;SDS011;44792;52.760;6.726;2023-07-13T13:01:26;9.43;;;1.90;;
59006;SDS011;44792;52.760;6.726;2023-07-13T13:03:53;5.20;;;2.05;;
59006;SDS011;44792;52.760;6.726;2023-07-13T13:06:26;6.20;;;2.00;;
59006;SDS011;44792;52.760;6.726;2023-07-13T13:08:57;4.10;;;1.98;;
59006;SDS011;44792;52.760;6.726;2023-07-13T13:11:25;6.13;;;1.58;;
59006;SDS011;44792;52.760;6.726;2023-07-13T13:13:52;5.38;;;2.17;;
59006;SDS011;44792;52.760;6.726;2023-07-13T13:19:13;4.63;;;1.27;;
59006;SDS011;44792;52.760;6.726;2023-07-13T13:21:42;8.98;;;1.80;;
59006;SDS011;44792;52.760;6.726;2023-07-13T13:24:13;6.72;;;1.67;;
59006;SDS011;44792;52.760;6.726;2023-07-13T13:26:45;5.13;;;1.52;;
59006;SDS011;44792;52.760;6.726;2023-07-13T13:29:16;2.80;;;1.42;;
59006;SDS011;44792;52.760;6.726;2023-07-13T13:31:44;5.25;;;1.60;;
59006;SDS011;44792;52.760;6.726;2023-07-13T13:34:11;5.00;;;1.65;;
59006;SDS011;44792;52.760;6.726;2023-07-13T13:36:39;3.13;;;1.20;;
59006;SDS011;44792;52.760;6.726;2023-07-13T13:39:15;3.33;;;1.25;;
59006;SDS011;44792;52.760;6.726;2023-07-13T13:41:43;3.38;;;1.55;;
59006;SDS011;44792;52.760;6.726;2023-07-13T13:44:09;4.90;;;1.60;;
59006;SDS011;44792;52.760;6.726;2023-07-13T13:46:35;5.78;;;1.63;;
59006;SDS011;44792;52.760;6.726;2023-07-13T13:49:01;5.82;;;1.70;;
59006;SDS011;44792;52.760;6.726;2023-07-13T13:51:27;2.17;;;1.38;;
59006;SDS011;44792;52.760;6.726;2023-07-13T13:53:54;5.50;;;1.10;;
59006;SDS011;44792;52.760;6.726;2023-07-13T13:56:20;2.92;;;1.30;;
59006;SDS011;44792;52.760;6.726;2023-07-13T13:58:46;2.40;;;1.05;;
59006;SDS011;44792;52.760;6.726;2023-07-13T14:01:16;3.00;;;1.20;;
59006;SDS011;44792;52.760;6.726;2023-07-13T14:03:45;4.40;;;1.30;;
59006;SDS011;44792;52.760;6.726;2023-07-13T14:06:13;2.85;;;1.10;;
59006;SDS011;44792;52.760;6.726;2023-07-13T14:08:41;6.30;;;1.55;;
59006;SDS011;44792;52.760;6.726;2023-07-13T14:11:08;3.42;;;1.15;;
59006;SDS011;44792;52.760;6.726;2023-07-13T14:13:38;4.78;;;1.20;;
59006;SDS011;44792;52.760;6.726;2023-07-13T14:16:12;5.13;;;1.42;;
59006;SDS011;44792;52.760;6.726;2023-07-13T14:18:41;5.07;;;1.63;;
59006;SDS011;44792;52.760;6.726;2023-07-13T14:21:17;2.50;;;1.20;;
59006;SDS011;44792;52.760;6.726;2023-07-13T14:23:44;3.90;;;1.00;;
59006;SDS011;44792;52.760;6.726;2023-07-13T14:26:12;2.72;;;1.00;;
59006;SDS011;44792;52.760;6.726;2023-07-13T14:28:43;1.73;;;0.90;;
59006;SDS011;44792;52.760;6.726;2023-07-13T14:31:11;3.80;;;1.15;;
59006;SDS011;44792;52.760;6.726;2023-07-13T14:33:38;5.25;;;1.15;;
59006;SDS011;44792;52.760;6.726;2023-07-13T14:38:48;5.28;;;1.15;;
59006;SDS011;44792;52.760;6.726;2023-07-13T14:41:26;5.47;;;1.00;;
59006;SDS011;44792;52.760;6.726;2023-07-13T14:43:52;4.78;;;1.08;;
59006;SDS011;44792;52.760;6.726;2023-07-13T14:46:23;5.00;;;1.13;;
59006;SDS011;44792;52.760;6.726;2023-07-13T14:49:03;4.47;;;1.13;;
59006;SDS011;44792;52.760;6.726;2023-07-13T14:51:49;1.73;;;0.90;;
59006;SDS011;44792;52.760;6.726;2023-07-13T14:54:15;3.00;;;1.27;;
59006;SDS011;44792;52.760;6.726;2023-07-13T14:56:41;5.13;;;1.10;;
59006;SDS011;44792;52.760;6.726;2023-07-13T14:59:07;3.53;;;1.30;;
59006;SDS011;44792;52.760;6.726;2023-07-13T15:01:34;4.05;;;1.10;;
59006;SDS011;44792;52.760;6.726;2023-07-13T15:04:00;2.60;;;0.98;;
59006;SDS011;44792;52.760;6.726;2023-07-13T15:06:27;3.30;;;1.10;;
59006;SDS011;44792;52.760;6.726;2023-07-13T15:08:54;2.17;;;1.08;;
59006;SDS011;44792;52.760;6.726;2023-07-13T15:11:20;6.07;;;1.55;;
59006;SDS011;44792;52.760;6.726;2023-07-13T15:13:47;2.03;;;1.10;;
59006;SDS011;44792;52.760;6.726;2023-07-13T15:16:14;5.57;;;1.50;;
59006;SDS011;44792;52.760;6.726;2023-07-13T15:18:43;3.70;;;1.20;;
59006;SDS011;44792;52.760;6.726;2023-07-13T15:21:11;3.38;;;1.30;;
59006;SDS011;44792;52.760;6.726;2023-07-13T15:23:42;2.17;;;1.00;;
59006;SDS011;44792;52.760;6.726;2023-07-13T15:26:11;2.83;;;1.13;;
59006;SDS011;44792;52.760;6.726;2023-07-13T15:31:18;3.30;;;1.40;;
59006;SDS011;44792;52.760;6.726;2023-07-13T15:33:49;2.40;;;1.10;;
59006;SDS011;44792;52.760;6.726;2023-07-13T15:36:17;3.92;;;1.30;;
59006;SDS011;44792;52.760;6.726;2023-07-13T15:38:44;2.70;;;1.08;;
59006;SDS011;44792;52.760;6.726;2023-07-13T15:41:18;5.47;;;1.25;;
59006;SDS011;44792;52.760;6.726;2023-07-13T15:43:48;2.42;;;1.20;;
59006;SDS011;44792;52.760;6.726;2023-07-13T15:46:17;4.03;;;1.50;;
59006;SDS011;44792;52.760;6.726;2023-07-13T15:48:43;5.30;;;1.23;;